createdAt,value
2022-10-22T00:01:58.884Z,17.00
2022-10-22T00:07:00.628Z,20.63
2022-10-22T00:12:02.401Z,25.98
2022-10-22T00:17:05.855Z,18.42
2022-10-22T00:22:12.683Z,19.83
2022-10-22T00:27:15.482Z,20.77
2022-10-22T00:32:17.121Z,22.08
2022-10-22T00:37:18.780Z,17.77
2022-10-22T00:42:24.598Z,18.98
2022-10-22T00:47:30.546Z,22.38
2022-10-22T00:52:32.714Z,16.90
2022-10-22T00:57:36.095Z,16.85
2022-10-22T01:02:38.079Z,16.60
2022-10-22T01:07:45.052Z,14.48
2022-10-22T01:13:05.401Z,18.27
2022-10-22T01:18:24.308Z,18.45
2022-10-22T01:23:25.926Z,18.23
2022-10-22T01:29:02.344Z,16.38
2022-10-22T01:34:05.173Z,14.38
2022-10-22T01:39:08.391Z,16.75
2022-10-22T01:44:33.403Z,20.52
2022-10-22T01:55:20.106Z,22.42
2022-10-22T02:00:22.056Z,20.92
2022-10-22T02:05:35.454Z,19.52
2022-10-22T02:10:39.525Z,20.95
2022-10-22T02:15:45.329Z,24.90
2022-10-22T02:20:47.571Z,23.40
2022-10-22T02:25:55.741Z,16.52
2022-10-22T02:31:04.434Z,20.40
2022-10-22T02:36:07.981Z,20.42
2022-10-22T02:41:11.619Z,18.40
2022-10-22T02:46:13.288Z,23.20
2022-10-22T02:51:15.336Z,22.35
2022-10-22T02:56:17.197Z,25.95
2022-10-22T03:01:18.947Z,22.67
2022-10-22T03:06:20.655Z,18.98
2022-10-22T03:11:22.320Z,21.55
2022-10-22T03:16:23.933Z,21.58
2022-10-22T03:21:37.083Z,21.20
2022-10-22T03:26:41.373Z,24.05
2022-10-22T03:31:43.260Z,21.77
2022-10-22T03:36:45.493Z,23.55
2022-10-22T03:41:49.136Z,19.30
2022-10-22T03:46:51.216Z,28.60
2022-10-22T03:51:52.873Z,20.27
2022-10-22T03:56:54.691Z,30.80
2022-10-22T04:01:56.350Z,33.03
2022-10-22T04:06:58.039Z,24.65
2022-10-22T04:12:00.073Z,25.20
2022-10-22T04:17:01.890Z,23.23
2022-10-22T04:22:03.544Z,20.30
2022-10-22T04:27:05.180Z,27.95
2022-10-22T04:32:06.873Z,34.38
2022-10-22T04:37:08.492Z,28.98
2022-10-22T04:42:10.879Z,20.17
2022-10-22T04:47:12.500Z,28.80
2022-10-22T04:52:14.110Z,24.45
2022-10-22T04:57:15.835Z,27.40
2022-10-22T05:02:17.424Z,24.83
2022-10-22T05:07:19.133Z,27.20
2022-10-22T05:12:20.786Z,24.17
2022-10-22T05:17:22.424Z,27.00
2022-10-22T05:22:29.616Z,26.00
2022-10-22T05:27:31.271Z,20.63
2022-10-22T05:32:35.096Z,24.52
2022-10-22T05:37:36.720Z,30.90
2022-10-22T05:42:38.641Z,20.80
2022-10-22T05:47:40.480Z,26.05
2022-10-22T05:52:42.345Z,26.88
2022-10-22T05:57:44.222Z,28.15
2022-10-22T06:02:50.037Z,24.33
2022-10-22T06:07:51.861Z,26.52
2022-10-22T06:12:53.485Z,19.70
2022-10-22T06:17:55.123Z,21.48
2022-10-22T06:22:56.712Z,19.38
2022-10-22T06:27:58.397Z,21.40
2022-10-22T06:33:00.009Z,21.42
2022-10-22T06:38:01.603Z,20.38
2022-10-22T06:43:03.353Z,25.50
2022-10-22T06:48:05.420Z,24.58
2022-10-22T06:53:07.190Z,28.02
2022-10-22T06:58:08.954Z,21.05
2022-10-22T07:03:13.281Z,25.80
2022-10-22T07:13:16.628Z,30.40
2022-10-22T07:18:18.200Z,25.70
2022-10-22T07:23:19.873Z,26.38
2022-10-22T07:28:23.118Z,26.77
2022-10-22T07:33:25.158Z,25.70
2022-10-22T07:38:27.668Z,20.77
2022-10-22T07:43:29.332Z,21.38
2022-10-22T07:48:30.999Z,16.23
2022-10-22T07:53:33.111Z,16.40
2022-10-22T07:58:35.364Z,13.38
2022-10-22T08:03:37.008Z,11.43
2022-10-22T08:08:39.180Z,9.88
2022-10-22T08:13:45.108Z,18.25
2022-10-22T08:18:47.349Z,11.40
2022-10-22T08:23:49.023Z,14.80
2022-10-22T08:28:50.690Z,12.95
2022-10-22T08:33:52.324Z,10.13
2022-10-22T08:38:53.983Z,9.52
2022-10-22T08:44:19.596Z,11.85
2022-10-22T08:49:38.523Z,8.38
2022-10-22T08:54:55.596Z,12.63
2022-10-22T09:00:11.206Z,8.82
2022-10-22T09:05:43.889Z,6.70
2022-10-22T09:10:50.910Z,8.98
2022-10-22T09:16:10.972Z,11.02
2022-10-22T09:21:12.686Z,9.00
2022-10-22T09:26:16.265Z,10.15
2022-10-22T09:31:18.287Z,11.80
2022-10-22T09:36:23.090Z,10.00
2022-10-22T09:41:32.195Z,11.57
2022-10-22T09:46:45.453Z,8.48
2022-10-22T09:51:52.243Z,11.10
2022-10-22T09:56:57.952Z,8.40
2022-10-22T10:02:19.492Z,9.20
2022-10-22T10:07:26.079Z,4.22
2022-10-22T10:12:38.981Z,4.70
2022-10-22T10:18:07.928Z,4.55
2022-10-22T10:23:28.136Z,4.13
2022-10-22T10:29:06.521Z,6.50
2022-10-22T10:34:25.716Z,5.38
2022-10-22T10:39:47.664Z,4.85
2022-10-22T10:45:20.204Z,6.95
2022-10-22T10:50:49.217Z,4.38
2022-10-22T10:56:00.619Z,6.63
2022-10-22T11:01:29.923Z,4.43
2022-10-22T11:06:34.137Z,8.55
2022-10-22T11:11:50.075Z,7.53
2022-10-22T11:16:59.086Z,4.55
2022-10-22T11:22:29.488Z,5.78
2022-10-22T11:27:41.271Z,11.15
2022-10-22T11:32:46.631Z,4.00
2022-10-22T11:37:49.282Z,7.07
2022-10-22T11:42:56.865Z,4.28
2022-10-22T11:48:10.660Z,4.82
2022-10-22T11:53:15.240Z,7.83
2022-10-22T11:58:50.721Z,7.30
2022-10-22T12:03:58.492Z,5.28
2022-10-22T12:09:04.804Z,4.82
2022-10-22T12:14:27.561Z,2.80
2022-10-22T12:19:51.587Z,6.93
2022-10-22T12:24:57.213Z,11.23
2022-10-22T12:30:03.976Z,2.45
2022-10-22T12:35:16.649Z,4.65
2022-10-22T12:40:21.228Z,3.75
2022-10-22T12:45:25.607Z,4.53
2022-10-22T12:55:43.426Z,3.50
2022-10-22T13:00:53.339Z,3.53
2022-10-22T13:06:11.367Z,4.47
2022-10-22T13:11:15.262Z,5.35
2022-10-22T13:16:24.596Z,2.50
2022-10-22T13:21:48.319Z,6.45
2022-10-22T13:26:53.075Z,4.97
2022-10-22T13:31:54.814Z,3.58
2022-10-22T13:36:56.521Z,2.45
2022-10-22T13:41:58.157Z,5.32
2022-10-22T13:46:59.898Z,3.55
2022-10-22T13:52:01.584Z,4.38
2022-10-22T13:57:08.846Z,6.60
2022-10-22T14:02:12.996Z,2.00
2022-10-22T14:07:16.512Z,4.97
2022-10-22T14:12:18.263Z,7.77
2022-10-22T14:17:20.363Z,4.63
2022-10-22T14:22:25.456Z,8.18
2022-10-22T14:27:29.121Z,5.00
2022-10-22T14:32:30.824Z,6.13
2022-10-22T14:37:32.543Z,5.75
2022-10-22T14:42:40.592Z,5.47
2022-10-22T14:47:42.572Z,1.63
2022-10-22T14:52:44.939Z,6.28
2022-10-22T14:57:46.932Z,4.68
2022-10-22T15:02:48.726Z,3.97
2022-10-22T15:07:50.608Z,6.00
2022-10-22T15:12:52.267Z,5.30
2022-10-22T15:17:53.920Z,5.78
2022-10-22T15:22:56.532Z,7.72
2022-10-22T15:28:04.667Z,5.97
2022-10-22T15:33:10.975Z,6.45
2022-10-22T15:38:12.573Z,7.22
2022-10-22T15:43:14.461Z,6.60
2022-10-22T15:48:16.069Z,4.60
2022-10-22T15:53:17.708Z,3.30
2022-10-22T15:58:19.389Z,5.15
2022-10-22T16:03:21.161Z,4.63
2022-10-22T16:08:23.034Z,8.00
2022-10-22T16:13:26.012Z,8.27
2022-10-22T16:18:27.652Z,10.98
2022-10-22T16:23:29.335Z,5.03
2022-10-22T16:28:31.006Z,17.85
2022-10-22T16:33:41.285Z,10.30
2022-10-22T16:38:47.335Z,13.32
2022-10-22T16:43:54.894Z,9.40
2022-10-22T16:48:57.036Z,9.65
2022-10-22T16:53:58.667Z,9.35
2022-10-22T16:59:00.396Z,10.02
2022-10-22T17:04:02.296Z,12.82
2022-10-22T17:09:04.980Z,10.40
2022-10-22T17:14:07.122Z,13.93
2022-10-22T17:19:15.628Z,12.48
2022-10-22T17:24:18.084Z,15.45
2022-10-22T17:29:21.839Z,14.88
2022-10-22T17:34:23.521Z,15.70
2022-10-22T17:39:25.976Z,14.63
2022-10-22T17:44:27.796Z,13.38
2022-10-22T17:49:29.612Z,11.98
2022-10-22T17:54:31.473Z,13.18
2022-10-22T17:59:33.464Z,12.13
2022-10-22T18:04:35.260Z,10.70
2022-10-22T18:09:37.128Z,9.02
2022-10-22T18:14:38.778Z,11.00
2022-10-22T18:19:40.486Z,13.10
2022-10-22T18:24:42.197Z,11.43
2022-10-22T18:29:43.867Z,13.57
2022-10-22T18:34:45.489Z,10.27
2022-10-22T18:39:47.139Z,12.25
2022-10-22T18:44:51.001Z,14.10
2022-10-22T18:49:52.646Z,10.82
2022-10-22T18:54:54.447Z,15.00
2022-10-22T18:59:58.666Z,14.73
2022-10-22T19:05:01.281Z,17.95
2022-10-22T19:10:03.503Z,18.00
2022-10-22T19:15:06.145Z,11.45
2022-10-22T19:20:08.456Z,20.25
2022-10-22T19:25:12.012Z,18.30
2022-10-22T19:30:14.374Z,18.33
2022-10-22T19:35:16.225Z,21.50
2022-10-22T19:40:18.005Z,24.27
2022-10-22T19:45:19.769Z,17.33
2022-10-22T19:50:22.887Z,12.95
2022-10-22T19:55:24.589Z,13.40
2022-10-22T20:00:26.364Z,14.35
2022-10-22T20:05:28.079Z,17.27
2022-10-22T20:10:30.157Z,11.75
2022-10-22T20:15:33.061Z,18.15
2022-10-22T20:20:39.517Z,15.30
2022-10-22T20:25:43.008Z,12.70
2022-10-22T20:30:45.757Z,13.65
2022-10-22T20:35:58.216Z,16.52
2022-10-22T20:41:05.683Z,13.70
2022-10-22T20:46:07.400Z,13.40
2022-10-22T20:51:09.157Z,14.00
2022-10-22T20:56:11.505Z,24.50
2022-10-22T21:01:20.403Z,15.52
2022-10-22T21:06:23.091Z,18.73
2022-10-22T21:11:24.953Z,18.65
2022-10-22T21:16:26.717Z,16.13
2022-10-22T21:21:28.404Z,19.45
2022-10-22T21:26:30.091Z,17.83
2022-10-22T21:31:31.770Z,16.75
2022-10-22T21:36:33.561Z,17.48
2022-10-22T21:41:37.561Z,21.38
2022-10-22T21:46:39.213Z,20.33
2022-10-22T21:51:42.806Z,17.77
2022-10-22T21:56:44.477Z,19.80
2022-10-22T22:01:46.261Z,20.65
2022-10-22T22:06:48.030Z,20.83
2022-10-22T22:11:49.681Z,20.38
2022-10-22T22:16:51.411Z,16.05
2022-10-22T22:21:53.046Z,14.10
2022-10-22T22:26:54.772Z,17.00
2022-10-22T22:31:56.611Z,15.68
2022-10-22T22:36:58.257Z,10.60
2022-10-22T22:42:00.003Z,18.27
2022-10-22T22:47:01.673Z,13.98
2022-10-22T22:52:04.228Z,16.48
2022-10-22T22:57:05.960Z,14.00
2022-10-22T23:02:07.771Z,10.50
2022-10-22T23:07:09.460Z,14.20
2022-10-22T23:12:11.305Z,14.40
2022-10-22T23:17:12.981Z,13.27
2022-10-22T23:22:14.705Z,14.85
2022-10-22T23:27:16.421Z,13.48
2022-10-22T23:32:18.121Z,10.80
2022-10-22T23:37:19.760Z,13.23
2022-10-22T23:42:21.397Z,12.07
2022-10-22T23:47:23.001Z,15.45
2022-10-22T23:52:24.609Z,14.05
2022-10-22T23:57:26.284Z,17.25
